Aviation Digital Data Service (ADDS)

Output produced by METARs form (1710 UTC 29 May 2017)
found at http://www.aviationweather.gov/adds/metars/
 
UNAA 291700Z 31001MPS CAVOK 13/09 Q1007 R20/090065 NOSIG RMK QFE733
TAF UNAA 291355Z 2915/3015 23003G08MPS 9999 SCT030CB 
     TEMPO 2915/2918 3000 -TSRA 
     TEMPO 3006/3015 25008G13MPS
       
URWA 291700Z 12002MPS CAVOK 14/M04 Q1021 R27/010070 NOSIG RMK QFE768/1024
TAF URWA 291400Z 2915/2924 02003MPS CAVOK
       
USCC 291700Z 31003MPS CAVOK 04/M05 Q1009 R27/000060 NOSIG RMK QFE737
TAF USCC 291400Z 2915/3015 33005MPS 9999 BKN030CB 
     TEMPO 2915/2918 34010MPS 
     TEMPO 2918/3003 3100 BR
       
UNBB 291700Z 14003MPS 9999 FEW040 20/07 Q1004 R06/CLRD66 NOSIG RMK QFE730
TAF UNBB 291400Z 2915/3015 24006G12MPS 9999 BKN020CB 
     TEMPO 2915/2921 VRB01MPS 
     PROB40 
     TEMPO 2915/2921 -TSRA 
     TEMPO 2921/3015 24011G17MPS 1200 TSRA SCT002 BKN010CB
       
UWKE 291700Z 19005MPS 9999 FEW033 04/00 Q1010 R21/090070 NOSIG RMK QFE741/0988
TAF UWKE 291345Z 2915/3015 23008G14MPS 9999 BKN020 
     TEMPO 2915/3006 19010G15MPS 2100 -TSRA BKN005 SCT015CB 
     TEMPO 3006/3015 18009G14MPS 3100 -SHRA BR BKN007 BKN010CB
       
UUOB 291700Z 23004MPS CAVOK 23/10 Q1012 R29/090060 NOSIG
TAF UUOB 291400Z 2915/2924 23007G12MPS 9999 SCT040
       
URMO 291700Z 10004MPS 9999 SCT040 17/10 Q1018 R09/010070 NOSIG RMK QFE720/0960
TAF URMO 291400Z 2915/2924 09007MPS 9999 BKN040 BKN100
       
USPP 291700Z 15002MPS CAVOK 05/M05 Q1009 R21/090060 NOSIG RMK QFE746
TAF USPP 291358Z 2915/3015 24003MPS 9999 BKN040 
     BECMG 2922/2924 19007MPS 
     BECMG 3004/3006 6000 -RA OVC015
       
UIBB 291700Z 06003MPS 9999 NSC 09/M02 Q1008 R30/CLRD60 NOSIG RMK QFE714/0952
TAF UIBB 291400Z 2915/3015 13004MPS 9999 NSC
       
UWKS 291700Z 16006MPS 7000 -SHRA BKN017CB 05/04 Q1002 R24/290360 NOSIG RMK QFE737
TAF UWKS 291355Z 2915/2924 17007G14MPS 4000 -SHRA BKN011 BKN015CB 
     TEMPO 2916/2924 20003G08MPS OVC005 BKN012CB
       
UUOO 291630Z 22005MPS CAVOK 23/09 Q1010 R30/090057 NOSIG RMK QFE744
TAF UUOO 291400Z 2915/2924 23008MPS 9999 SCT040
       
UUDD 291700Z 24003MPS 200V280 9999 SCT050CB 15/12 Q1002 R88/290095 TEMPO VRB18MPS 1500 TSRA SCT005 BKN020CB
TAF UUDD 291356Z 2915/3021 25010G15MPS 9999 BKN020 TX18/3011Z TN10/3002Z 
     TEMPO 2915/2923 VRB22MPS 2100 -TSRA SCT004 BKN010CB 
     BECMG 3000/3002 33008MPS
       
URWW 291700Z 25004MPS CAVOK 15/M01 Q1018 R24/010070 NOSIG
TAF URWW 291358Z 2915/2924 21003G08MPS CAVOK 
     TEMPO 2915/2924 24003G08MPS
       
UHBB 291700Z 30002MPS 9999 FEW033 03/02 Q0995 R36/090060 NOSIG RMK QFE729/0972
TAF UHBB 291358Z 2915/3015 27003MPS 9999 SCT030 
     BECMG 2917/2919 2100 BR SCT010 SCT030 
     FM300000 30006MPS 9999 BKN020CB 
     TEMPO 3003/3012 27006MPS 3000 -SHRA 
     BECMG 3012/3013 33003MPS
       
UIII 291700Z 14002MPS CAVOK 06/01 Q1009 R12/CLRD60 NOSIG RMK QFE715/0953
TAF UIII 291400Z 2915/3015 16004MPS 9999 SCT020CB 
     TEMPO 2918/3002 2500 -SHRA BKN007CB
       
UIAA 291700Z VRB01MPS 9999 NSC M01/M10 Q1010 R29/CLRD70 NOSIG RMK QFE699/0932
TAF UIAA 291400Z 2915/3015 33005MPS 9999 NSC 
     TEMPO 3003/3015 06005MPS
       
UWKD 291700Z 16007MPS 9999 OVC031 06/04 Q1006 R11/2/0050 NOSIG RMK QFE744/0992
TAF UWKD 291352Z 2915/3015 21007G12MPS 9999 BKN015 TX17/3011Z TN07/3003Z 
     TEMPO 2915/2921 19010G15MPS 3000 -TSRA BKN006 BKN015CB 
     TEMPO 2921/3009 3000 -SHRA BKN010 BKN015CB
       
UNEE 291700Z 00000MPS CAVOK 19/08 Q1004 R23/CLRD60 NOSIG RMK QFE730
TAF UNEE 291400Z 2915/3015 18003G08MPS 9999 SCT020 
     TEMPO 2915/2918 25005MPS 
     TEMPO 3000/3015 21008G14MPS
       
USCC 291700Z 31003MPS CAVOK 04/M05 Q1009 R27/000060 NOSIG RMK QFE737
TAF USCC 291400Z 2915/3015 33005MPS 9999 BKN030CB 
     TEMPO 2915/2918 34010MPS 
     TEMPO 2918/3003 3100 BR
       
USCM 291700Z 30004MPS 9999 FEW040 03/M05 Q1010 R36/090065 TEMPO 32012MPS RMK QFE719
TAF USCM 291700Z 2918/3003 28005MPS 6000 OVC020 
     TEMPO 3000/3003 21007MPS 3100 -RA BR
       
USHH 291700Z 01002MPS 320V040 9999 BKN029 03/M02 Q1006 R06/010060 NOSIG RMK QFE751
TAF USHH 291351Z 2915/3015 36003MPS 9999 BKN015CB 
     TEMPO 2915/3003 4000 BR BKN011CB
       
USNN 291700Z 32002MPS 280V360 9999 OVC016 05/03 Q1003 R21/0///65 NOSIG RMK QFE747
TAF USNN 291400Z 2915/3015 32003MPS 9999 OVC015 
     TEMPO 2915/2918 4000 -SHRA BKN007 SCT015CB 
     BECMG 2918/2919 34003MPS 
     FM300000 35006G12MPS 2000 SHRA BKN007 BKN015CB
       
USPP 291700Z 15002MPS CAVOK 05/M05 Q1009 R21/090060 NOSIG RMK QFE746
TAF USPP 291358Z 2915/3015 24003MPS 9999 BKN040 
     BECMG 2922/2924 19007MPS 
     BECMG 3004/3006 6000 -RA OVC015
       
USRR 291700Z 36004MPS 320V030 7000 SCT022CB SCT032 03/01 Q1004 R25/19//60 NOSIG RMK QFE748
TAF USRR 291355Z 2915/3015 35004MPS 9999 BKN020CB 
     TEMPO 2915/2924 4000 -SHRA BKN007 BKN015CB
       
USSS 291700Z 33003MPS 300V360 CAVOK 06/M06 Q1009 R26R/010060 NOSIG RMK QFE736/0982
TAF USSS 291400Z 2915/3015 30003MPS 9999 SCT020CB 
     TEMPO 2915/2920 32009MPS 
     BECMG 2920/2922 2100 BR SCT007
       
USTR 291700Z 35005MPS CAVOK 04/M03 Q1007 R03/CLRD65 NOSIG RMK QFE745/0994
TAF USTR 291356Z 2915/3015 32006G11MPS 9999 SCT011 BKN015CB 
     TEMPO 2915/2921 35010MPS 3100 -SHRAGS 
     TEMPO 2921/3006 30006MPS 
     FM300600 20007MPS 9999 BKN020CB
       
UHSS 291700Z 31001MPS 0450 0150E R19/1000D FG VV001 03/03 Q1004 R19/CLRD70 NOSIG RMK QBB040 MT OBSC QFE751/1002
TAF AMD UHSS 291550Z 2916/3021 VRB01MPS 1400 BR BKN004 
     TEMPO 2916/2923 0600 FG VV002 
     FM30000 20005MPS 9999 BKN020CB OVC100 
     TEMPO 3010/3021 3000 -SHRA BR BKN007 BKN015CB
       
UMKK 291700Z 30005MPS 270V340 9999 SCT006 15/12 Q1012 R24/CLRD60 NOSIG RMK QBB190 OBST OBSC QFE758/1011
TAF UMKK 291400Z 2915/3015 29005MPS 6000 SCT005 OVC010 
     TEMPO 2915/2921 32008MPS 3100 -SHRA BR BKN004 SCT015CB 
     BECMG 2921/2923 36003G08MPS 
     TEMPO 3000/3009 VRB01MPS
       
UHWW 291700Z 09003MPS 9999 NSC 07/04 Q1005 R25L/0///70 NOSIG RMK QFE753
TAF UHWW 291350Z 2915/3015 11003MPS 5000 BR SCT007 SCT020 
     FM291600 14003MPS 2100 BR BKN007 BKN020 
     BECMG 2919/2921 20003MPS 0300 FG 
     BECMG 2922/2923 2100 BR SCT007 BKN025 
     BECMG 3001/3002 9999 NSW SCT030 
     TEMPO 3003/3010 5000 -SHRA SCT020CB
       
USSS 291700Z 33003MPS 300V360 CAVOK 06/M06 Q1009 R26R/010060 NOSIG RMK QFE736/0982
TAF USSS 291400Z 2915/3015 30003MPS 9999 SCT020CB 
     TEMPO 2915/2920 32009MPS 
     BECMG 2920/2922 2100 BR SCT007
       
UNKL 291700Z VRB01MPS CAVOK 14/11 Q1005 R29/CLRD65 NOSIG RMK QFE728
TAF UNKL 291356Z 2915/3015 18003G10MPS 9999 SCT020CB 
     TEMPO 2915/2921 20011G17MPS 3000 -TSRA BKN013CB
       
UUOK 291700Z 25006MPS 9999 SCT033 24/09 Q1010 R30/CLRD65 NOSIG RMK QFE739/0985
TAF UUOK 291408Z 2915/2924 24005G10MPS 9999 BKN020 
     TEMPO 2915/2918 22006MPS
       
USCM 291700Z 30004MPS 9999 FEW040 03/M05 Q1010 R36/090065 TEMPO 32012MPS RMK QFE719
TAF USCM 291700Z 2918/3003 28005MPS 6000 OVC020 
     TEMPO 3000/3003 21007MPS 3100 -RA BR
       
URMM 291700Z 10004MPS 9999 BKN050 19/13 Q1017 R12/000070 NOSIG RMK QFE735/0980
TAF URMM 291358Z 2915/3015 09003G08MPS 9999 BKN030 TX23/3011Z TN10/3002Z 
     TEMPO 2915/2918 10005G12MPS 
     TEMPO 2918/3006 VRB01MPS 3100 BR BKN011
       
USCC 291700Z 31003MPS CAVOK 04/M05 Q1009 R27/000060 NOSIG RMK QFE737
TAF USCC 291400Z 2915/3015 33005MPS 9999 BKN030CB 
     TEMPO 2915/2918 34010MPS 
     TEMPO 2918/3003 3100 BR
       
USCM 291700Z 30004MPS 9999 FEW040 03/M05 Q1010 R36/090065 TEMPO 32012MPS RMK QFE719
TAF USCM 291700Z 2918/3003 28005MPS 6000 OVC020 
     TEMPO 3000/3003 21007MPS 3100 -RA BR
       
USHH 291700Z 01002MPS 320V040 9999 BKN029 03/M02 Q1006 R06/010060 NOSIG RMK QFE751
TAF USHH 291351Z 2915/3015 36003MPS 9999 BKN015CB 
     TEMPO 2915/3003 4000 BR BKN011CB
       
USNN 291700Z 32002MPS 280V360 9999 OVC016 05/03 Q1003 R21/0///65 NOSIG RMK QFE747
TAF USNN 291400Z 2915/3015 32003MPS 9999 OVC015 
     TEMPO 2915/2918 4000 -SHRA BKN007 SCT015CB 
     BECMG 2918/2919 34003MPS 
     FM300000 35006G12MPS 2000 SHRA BKN007 BKN015CB
       
USPP 291700Z 15002MPS CAVOK 05/M05 Q1009 R21/090060 NOSIG RMK QFE746
TAF USPP 291358Z 2915/3015 24003MPS 9999 BKN040 
     BECMG 2922/2924 19007MPS 
     BECMG 3004/3006 6000 -RA OVC015
       
USRR 291700Z 36004MPS 320V030 7000 SCT022CB SCT032 03/01 Q1004 R25/19//60 NOSIG RMK QFE748
TAF USRR 291355Z 2915/3015 35004MPS 9999 BKN020CB 
     TEMPO 2915/2924 4000 -SHRA BKN007 BKN015CB
       
USSS 291700Z 33003MPS 300V360 CAVOK 06/M06 Q1009 R26R/010060 NOSIG RMK QFE736/0982
TAF USSS 291400Z 2915/3015 30003MPS 9999 SCT020CB 
     TEMPO 2915/2920 32009MPS 
     BECMG 2920/2922 2100 BR SCT007
       
USTR 291700Z 35005MPS CAVOK 04/M03 Q1007 R03/CLRD65 NOSIG RMK QFE745/0994
TAF USTR 291356Z 2915/3015 32006G11MPS 9999 SCT011 BKN015CB 
     TEMPO 2915/2921 35010MPS 3100 -SHRAGS 
     TEMPO 2921/3006 30006MPS 
     FM300600 20007MPS 9999 BKN020CB
       
UIUU 291700Z VRB01MPS 9999 SCT040CB 10/M02 Q1010 R26/CLRD60 NOSIG RMK QFE713/0951
TAF UIUU 291400Z 2915/3015 02003MPS 9999 SCT040CB
       
ULMM 291700Z 30003MPS 9999 SCT030CB 03/M09 Q1006 R31/090070 NOSIG RMK QFE747
TAF ULMM 291355Z 2915/3015 33003G08MPS 9999 BKN015 
     TEMPO 2915/2917 30006G12MPS 1000 SHSNRA BKN005 BKN015CB 
     TEMPO 2917/2921 30003MPS 3100 -SHSNRA BKN011 BKN015CB 
     BECMG 2921/2922 27003G08MPS 
     TEMPO 2922/3015 24005G11MPS 3100 -SHSNRA BKN011 BKN015CB
       
URMN 291700Z 00000MPS 9999 BKN033 OVC/// 20/12 Q1017 R24/010070 NOSIG RMK QFE726
TAF URMN 291400Z 2915/2924 22003MPS 9999 BKN020CB
       
USNN 291700Z 32002MPS 280V360 9999 OVC016 05/03 Q1003 R21/0///65 NOSIG RMK QFE747
TAF USNN 291400Z 2915/3015 32003MPS 9999 OVC015 
     TEMPO 2915/2918 4000 -SHRA BKN007 SCT015CB 
     BECMG 2918/2919 34003MPS 
     FM300000 35006G12MPS 2000 SHRA BKN007 BKN015CB
       
UHHH 291700Z VRB01MPS CAVOK 10/02 Q1000 R23L/090060 NOSIG RMK QFE744/0992
TAF UHHH 291350Z 2915/3021 22005MPS 9999 SCT020CB 
     TEMPO 2915/2921 25008G13MPS 2000 SHRA BR SCT006 BKN020CB 
     FM300000 27009MPS 9999 SCT010 BKN020CB 
     TEMPO 3000/3009 25010G15MPS 3000 -SHRA SCT006 BKN020CB
       
UWOO 291700Z 32003MPS CAVOK 05/M03 Q1014 R26/CLRD65 NOSIG RMK QFE750/1000
TAF COR UWOO 291500Z 2915/3015 24004G09MPS 9999 SCT020CB BKN030 TX22/3009Z TN05/3001Z 
     TEMPO 2915/2918 30007MPS 
     BECMG 3002/3004 23010G15MPS 
     TEMPO 3005/3015 24018MPS 3100 -SHRA BKN015CB BKN030
       
UWOR 291700Z 32002MPS 260V020 9999 BKN050CB 07/05 Q1011 R07/CLRD65 NOSIG RMK QFE733/0978
TAF UWOR 291400Z 2915/2924 35005G10MPS 9999 BKN023CB 
     TEMPO 2915/2921 33004G09MPS
       
URKK 291700Z 04003MPS CAVOK 20/14 Q1015 R23C/CLRD60 NOSIG RMK QFE758
TAF URKK 291354Z 2915/3015 08003G08MPS 9999 SCT020CB 
     TEMPO 2915/2921 3100 -TSRA BKN011 BKN020CB 
     TEMPO 2921/3003 3100 BR SCT011 SCT030CB
       
ULOO 291700Z 33002MPS 310V010 P5000 SCT033CB 19/13 Q1004 R19/290055 NOSIG RMK QFE749
TAF ULOO 291357Z 2915/2924 29004G09MPS 6000 BKN015 
     TEMPO 2915/2918 33005G10MPS 3100 -SHRA BKN011 BKN020CB 
     BECMG 2918/2919 35003G08MPS 
     TEMPO 2918/2924 3100 -SHRA BKN011 BKN020CB
       
ULLI 291700Z 05005MPS 020V080 9999 BKN033 11/04 Q1006 R88/090060 NOSIG
TAF ULLI 291355Z 2915/3015 01003G08MPS 9999 BKN030 
     TEMPO 2915/2918 06005G11MPS 5000 -SHRA BKN010 BKN020CB 
     BECMG 3000/3002 33002G07MPS 
     TEMPO 3000/3006 VRB01MPS 3100 BR SCT011
       
USTR 291700Z 35005MPS CAVOK 04/M03 Q1007 R03/CLRD65 NOSIG RMK QFE745/0994
TAF USTR 291356Z 2915/3015 32006G11MPS 9999 SCT011 BKN015CB 
     TEMPO 2915/2921 35010MPS 3100 -SHRAGS 
     TEMPO 2921/3006 30006MPS 
     FM300600 20007MPS 9999 BKN020CB
       
URRR 291700Z 10003MPS CAVOK 19/11 Q1017 R04/CLRD70 NOSIG RMK QFE756/1008
TAF URRR 291357Z 2915/3015 12003G08MPS 9999 SCT020CB 
     TEMPO 2921/3006 16003G08MPS 3100 BR SCT011 SCT020CB 
     BECMG 3006/3008 24003G08MPS
       
UUEE 291700Z 23005MPS 9999 SCT050CB 16/13 Q1001 R24R/150057 R24L/150057 NOSIG
TAF UUEE 291407Z 2915/3015 26009G14MPS 9999 BKN015 TX15/2915Z TN08/3002Z 
     TEMPO 2915/2921 VRB23MPS 3100 -TSRAGR BKN004 BKN010CB 
     BECMG 2923/3001 34007MPS
       
URMT 291700Z 11003MPS CAVOK 16/12 Q1017 R07/010070 NOSIG RMK QFE723
TAF URMT 291400Z 2915/2924 09004G10MPS 9999 SCT020CB 
     TEMPO 2915/2918 3100 -SHRA SCT011 BKN020CB 
     TEMPO 2918/2924 3100 BR SCT011 BKN020CB
       
URSS 291700Z 30004MPS 9999 NSC 18/16 Q1013 WS ALL RWY R02/090070 R06/090070 NOSIG RMK R06/30005G08MPS QFE758
TAF URSS 291357Z 2915/3015 28005MPS 9999 SCT030 
     BECMG 2917/2919 05005MPS 
     BECMG 3006/3007 17007MPS
       
UHMM 291700Z 00000MPS 9999 NSC M02/M03 Q1012 RMK QFE744
TAF UHMM 291350Z 2915/3021 10003MPS 9999 SCT040 BKN070 
     TEMPO 2913/2922 3100 BR SCT005
       
UWGG 291700Z 22001MPS 6000 2500W -RA BKN020 13/12 Q0999 R18R/290050 NOSIG RMK QFE743
TAF UWGG 291359Z 2915/3015 25003MPS 4000 -SHRA BKN011 BKN015CB TX12/2915Z TN10/3002Z 
     TEMPO 2915/2921 VRB18MPS 1500 TSRA SQ
       
USRR 291700Z 36004MPS 320V030 7000 SCT022CB SCT032 03/01 Q1004 R25/19//60 NOSIG RMK QFE748
TAF USRR 291355Z 2915/3015 35004MPS 9999 BKN020CB 
     TEMPO 2915/2924 4000 -SHRA BKN007 BKN015CB
       
UNNT 291700Z 16003MPS CAVOK 18/09 Q1002 R25/090070 R16/090070 NOSIG RMK QFE742/0989
TAF UNNT 291400Z 2915/3015 16003MPS 9999 BKN020CB 
     TEMPO 2915/2924 3000 BR SCT010 BKN020CB 
     PROB40 
     TEMPO 2915/2924 -TSRA 
     FM300000 20006G13MPS 9999 -SHRA SCT010 BKN015CB 
     PROB40 
     TEMPO 3000/3015 3000 -TSRA
       
UNOO 291700Z 11002MPS 9999 BKN033CB 16/13 Q0996 R25/290055 NOSIG RMK QFE739
TAF UNOO 291350Z 2915/3015 36003G08MPS 6000 SCT010 BKN030CB 
     TEMPO 2915/3001 0300 -TSRA FG BKN004 BKN020CB 
     TEMPO 3005/3015 34014MPS
       
UUDL 291700Z 31001MPS 9999 OVC017 14/12 Q0999 R23/290350 NOSIG RMK QFE741
TAF UUDL 291400Z 2915/3015 25006MPS 6000 -SHRA BKN020CB 
     BECMG 2915/2918 32003MPS
       
URML 291700Z 16004MPS 9999 NSC 17/14 Q1020 R14/01//70 NOSIG RMK QFE765/1020
TAF URML 291400Z 2915/2924 12005G10MPS 9999 SCT030CB
       
URKA 291700Z 04003MPS CAVOK 19/13 Q1015 R04/010070 NOSIG RMK QFE757/1010
TAF URKA 291355Z 2915/3015 06005G10MPS 9999 SCT030CB
       
UUWW 291700Z 24006G12MPS 9999 -SHRA BKN050CB 16/13 Q1002 R24/290050 TEMPO 25018MPS 1500 TSRAGR SQ BKN015CB
TAF UUWW 291358Z 2915/3015 25008MPS 9999 BKN010 TX18/3012Z TN12/3004Z 
     TEMPO 2915/2921 VRB20MPS 1000 TSRAGR SQ SCT004 BKN015CB 
     BECMG 2921/2923 33007MPS 
     TEMPO 2921/3005 1500 -SHRA BR SCT004 SCT015CB
       
UHPP 291700Z 19002MPS 9999 BKN032 07/03 Q1009 R34L/CLRD70 NOSIG RMK QFE753/1004
TAF UHPP 291356Z 2915/3021 19003G10MPS 9999 BKN020CB OVC050 
     TEMPO 2915/2921 3100 -SHRA BR BKN011 OVC015CB 
     TEMPO 3006/3021 15003G12MPS 3100 -SHRA BR BKN011 OVC015CB